createdAt,value
2023-01-03T00:01:17.696Z,9.20
2023-01-03T00:03:45.929Z,9.30
2023-01-03T00:06:18.425Z,9.30
2023-01-03T00:08:47.144Z,9.40
2023-01-03T00:11:16.688Z,9.40
2023-01-03T00:13:45.345Z,9.40
2023-01-03T00:16:17.585Z,9.50
2023-01-03T00:18:45.871Z,9.50
2023-01-03T00:21:14.486Z,9.50
2023-01-03T00:23:42.575Z,9.50
2023-01-03T00:26:11.903Z,9.40
2023-01-03T00:28:40.481Z,9.30
2023-01-03T00:31:12.147Z,9.20
2023-01-03T00:33:41.832Z,9.30
2023-01-03T00:36:11.435Z,9.40
2023-01-03T00:38:40.406Z,9.40
2023-01-03T00:41:10.133Z,9.30
2023-01-03T00:43:39.165Z,9.30
2023-01-03T00:46:09.709Z,9.20
2023-01-03T00:48:37.878Z,9.10
2023-01-03T00:51:07.893Z,9.00
2023-01-03T00:53:37.121Z,9.10
2023-01-03T00:56:06.339Z,9.00
2023-01-03T00:58:35.243Z,8.90
2023-01-03T01:01:06.950Z,8.90
2023-01-03T01:03:38.320Z,8.80
2023-01-03T01:06:14.666Z,8.80
2023-01-03T01:08:42.892Z,8.80
2023-01-03T01:11:11.820Z,8.80
2023-01-03T01:13:41.836Z,8.70
2023-01-03T01:16:12.209Z,8.60
2023-01-03T01:18:42.985Z,8.70
2023-01-03T01:21:14.405Z,8.80
2023-01-03T01:23:43.203Z,8.70
2023-01-03T01:26:14.214Z,8.70
2023-01-03T01:28:42.852Z,8.60
2023-01-03T01:31:14.280Z,8.50
2023-01-03T01:33:44.084Z,8.40
2023-01-03T01:36:16.878Z,8.30
2023-01-03T01:38:45.076Z,8.30
2023-01-03T01:41:15.373Z,8.30
2023-01-03T01:44:14.488Z,8.30
2023-01-03T01:46:43.732Z,8.10
2023-01-03T01:49:18.228Z,8.10
2023-01-03T01:51:46.364Z,8.20
2023-01-03T01:54:14.755Z,8.10
2023-01-03T01:56:46.694Z,8.10
2023-01-03T01:59:15.591Z,8.00
2023-01-03T02:01:47.065Z,7.90
2023-01-03T02:04:22.351Z,8.10
2023-01-03T02:06:50.907Z,8.00
2023-01-03T02:09:19.492Z,7.90
2023-01-03T02:12:15.214Z,7.80
2023-01-03T02:14:55.909Z,7.90
2023-01-03T02:17:46.277Z,7.90
2023-01-03T02:20:28.056Z,7.90
2023-01-03T02:23:27.162Z,7.80
2023-01-03T02:26:19.849Z,7.80
2023-01-03T02:29:05.773Z,7.70
2023-01-03T02:31:44.268Z,7.70
2023-01-03T02:34:21.280Z,7.70
2023-01-03T02:37:00.969Z,7.70
2023-01-03T02:39:40.843Z,7.70
2023-01-03T02:42:32.927Z,7.70
2023-01-03T02:45:09.239Z,7.70
2023-01-03T02:47:46.850Z,7.70
2023-01-03T02:50:17.229Z,7.80
2023-01-03T02:52:47.357Z,7.70
2023-01-03T02:55:20.920Z,7.70
2023-01-03T02:57:53.722Z,7.80
2023-01-03T03:00:24.804Z,7.80
2023-01-03T03:03:00.481Z,7.80
2023-01-03T03:05:33.425Z,7.70
2023-01-03T03:08:01.477Z,7.60
2023-01-03T03:10:48.078Z,7.60
2023-01-03T03:13:24.753Z,7.50
2023-01-03T03:15:59.929Z,7.40
2023-01-03T03:18:37.668Z,7.40
2023-01-03T03:21:27.695Z,7.30
2023-01-03T03:24:19.728Z,7.30
2023-01-03T03:26:50.921Z,7.30
2023-01-03T03:29:19.629Z,7.30
2023-01-03T03:31:50.471Z,7.30
2023-01-03T03:34:24.771Z,7.30
2023-01-03T03:36:59.122Z,7.20
2023-01-03T03:39:46.573Z,7.20
2023-01-03T03:42:47.667Z,7.10
2023-01-03T03:45:24.642Z,7.00
2023-01-03T03:47:58.284Z,7.00
2023-01-03T03:50:33.790Z,7.00
2023-01-03T03:53:06.102Z,6.90
2023-01-03T03:55:38.979Z,6.80
2023-01-03T03:58:11.401Z,6.80
2023-01-03T04:00:42.057Z,6.80
2023-01-03T04:03:11.891Z,6.80
2023-01-03T04:05:45.933Z,6.80
2023-01-03T04:08:14.022Z,6.90
2023-01-03T04:10:43.598Z,6.90
2023-01-03T04:13:11.843Z,6.90
2023-01-03T04:15:39.848Z,6.90
2023-01-03T04:18:07.960Z,6.90
2023-01-03T04:20:36.207Z,6.90
2023-01-03T04:23:05.617Z,6.90
2023-01-03T04:25:35.150Z,6.80
2023-01-03T04:28:03.267Z,6.80
2023-01-03T04:30:31.418Z,6.60
2023-01-03T04:32:59.442Z,6.60
2023-01-03T04:35:27.537Z,6.50
2023-01-03T04:37:55.580Z,6.50
2023-01-03T04:40:25.138Z,6.50
2023-01-03T04:43:11.670Z,6.50
2023-01-03T04:45:40.425Z,6.50
2023-01-03T04:48:08.549Z,6.40
2023-01-03T04:50:36.676Z,6.30
2023-01-03T04:53:04.713Z,6.30
2023-01-03T04:55:34.238Z,6.30
2023-01-03T04:58:02.610Z,6.30
2023-01-03T05:00:30.816Z,6.30
2023-01-03T05:02:58.882Z,6.30
2023-01-03T05:05:26.907Z,6.40
2023-01-03T05:07:54.935Z,6.40
2023-01-03T05:10:23.047Z,6.40
2023-01-03T05:13:00.663Z,6.40
2023-01-03T05:15:29.136Z,6.50
2023-01-03T05:17:57.697Z,6.50
2023-01-03T05:20:43.330Z,6.50
2023-01-03T05:23:31.385Z,6.50
2023-01-03T05:26:00.558Z,6.60
2023-01-03T05:28:30.322Z,6.50
2023-01-03T05:30:59.124Z,6.50
2023-01-03T05:33:27.784Z,6.50
2023-01-03T05:35:55.958Z,6.50
2023-01-03T05:38:24.486Z,6.50
2023-01-03T05:40:52.581Z,6.40
2023-01-03T05:43:20.770Z,6.50
2023-01-03T05:45:52.790Z,6.50
2023-01-03T05:48:22.100Z,6.50
2023-01-03T05:50:50.964Z,6.60
2023-01-03T05:53:19.440Z,6.60
2023-01-03T05:55:47.460Z,6.60
2023-01-03T05:58:15.571Z,6.70
2023-01-03T06:00:44.753Z,6.70
2023-01-03T06:03:16.170Z,6.80
2023-01-03T06:05:50.177Z,6.80
2023-01-03T06:08:18.865Z,6.80
2023-01-03T06:10:47.152Z,6.70
2023-01-03T06:13:15.361Z,6.80
2023-01-03T06:16:03.364Z,6.80
2023-01-03T06:18:31.955Z,6.80
2023-01-03T06:20:59.979Z,6.90
2023-01-03T06:23:28.452Z,6.90
2023-01-03T06:25:56.501Z,6.90
2023-01-03T06:28:24.679Z,6.90
2023-01-03T06:30:53.131Z,6.80
2023-01-03T06:33:21.257Z,6.90
2023-01-03T06:35:50.669Z,6.80
2023-01-03T06:38:19.472Z,6.80
2023-01-03T06:40:49.091Z,6.80
2023-01-03T06:43:17.178Z,6.70
2023-01-03T06:46:02.985Z,6.60
2023-01-03T06:48:48.742Z,6.60
2023-01-03T06:51:39.266Z,6.60
2023-01-03T06:54:07.784Z,6.60
2023-01-03T06:56:35.847Z,6.60
2023-01-03T06:59:03.935Z,6.60
2023-01-03T07:01:32.136Z,6.60
2023-01-03T07:04:00.349Z,6.60
2023-01-03T07:06:30.036Z,6.70
2023-01-03T07:08:58.210Z,6.70
2023-01-03T07:11:26.885Z,6.70
2023-01-03T07:14:00.049Z,6.70
2023-01-03T07:16:30.537Z,6.70
2023-01-03T07:18:59.497Z,6.60
2023-01-03T07:21:31.481Z,6.60
2023-01-03T07:24:01.871Z,6.60
2023-01-03T07:26:32.122Z,6.70
2023-01-03T07:29:01.672Z,6.60
2023-01-03T07:31:29.831Z,6.50
2023-01-03T07:33:58.625Z,6.50
2023-01-03T07:36:26.902Z,6.60
2023-01-03T07:38:56.720Z,6.50
2023-01-03T07:41:45.889Z,6.50
2023-01-03T07:44:13.097Z,6.60
2023-01-03T07:46:41.289Z,6.60
2023-01-03T07:49:11.990Z,6.50
2023-01-03T07:51:40.950Z,6.50
2023-01-03T07:54:10.401Z,6.40
2023-01-03T07:56:38.476Z,6.50
2023-01-03T07:59:06.516Z,6.50
2023-01-03T08:01:35.108Z,6.60
2023-01-03T08:04:03.387Z,6.70
2023-01-03T08:06:31.458Z,6.70
2023-01-03T08:09:16.882Z,6.80
2023-01-03T08:12:03.670Z,6.80
2023-01-03T08:14:31.687Z,6.80
2023-01-03T08:16:59.790Z,6.90
2023-01-03T08:19:28.081Z,6.70
2023-01-03T08:21:56.230Z,6.70
2023-01-03T08:24:24.317Z,6.70
2023-01-03T08:26:53.880Z,6.70
2023-01-03T08:29:21.955Z,6.60
2023-01-03T08:31:55.335Z,6.60
2023-01-03T08:34:29.438Z,6.60
2023-01-03T08:37:02.171Z,6.50
2023-01-03T08:39:35.137Z,6.40
2023-01-03T08:42:08.097Z,6.40
2023-01-03T08:44:36.815Z,6.50
2023-01-03T08:47:08.240Z,6.40
2023-01-03T08:49:37.345Z,7.50
2023-01-03T08:52:06.058Z,6.70
2023-01-03T08:54:34.155Z,6.50
2023-01-03T08:57:02.361Z,6.40
2023-01-03T08:59:31.854Z,6.50
2023-01-03T09:02:00.325Z,6.60
2023-01-03T09:04:28.597Z,6.50
2023-01-03T09:06:56.781Z,6.60
2023-01-03T09:09:24.856Z,6.70
2023-01-03T09:11:53.041Z,6.60
2023-01-03T09:14:21.385Z,6.60
2023-01-03T09:16:51.061Z,6.50
2023-01-03T09:19:19.236Z,6.50
2023-01-03T09:21:47.354Z,6.50
2023-01-03T09:24:15.562Z,6.60
2023-01-03T09:26:46.852Z,6.60
2023-01-03T09:29:17.391Z,6.50
2023-01-03T09:31:46.028Z,6.50
2023-01-03T09:34:15.701Z,6.50
2023-01-03T09:36:43.755Z,6.50
2023-01-03T09:39:12.101Z,6.50
2023-01-03T09:41:41.122Z,6.60
2023-01-03T09:44:11.312Z,6.70
2023-01-03T09:46:39.489Z,6.70
2023-01-03T09:49:08.210Z,6.70
2023-01-03T09:51:59.264Z,6.60
2023-01-03T09:54:48.372Z,6.60
2023-01-03T09:57:37.892Z,6.60
2023-01-03T10:00:31.636Z,6.60
2023-01-03T10:03:33.317Z,6.60
2023-01-03T10:06:27.388Z,6.70
2023-01-03T10:09:08.637Z,6.80
2023-01-03T10:11:45.793Z,6.90
2023-01-03T10:14:36.284Z,7.00
2023-01-03T10:17:15.825Z,7.00
2023-01-03T10:20:19.601Z,7.00
2023-01-03T10:22:49.532Z,6.80
2023-01-03T10:25:22.269Z,6.80
2023-01-03T10:27:52.563Z,6.80
2023-01-03T10:30:32.024Z,6.90
2023-01-03T10:33:28.070Z,6.90
2023-01-03T10:35:57.114Z,6.80
2023-01-03T10:38:25.852Z,6.80
2023-01-03T10:40:58.693Z,6.70
2023-01-03T10:43:32.313Z,6.80
2023-01-03T10:46:02.279Z,6.90
2023-01-03T10:48:59.988Z,6.90
2023-01-03T10:51:35.732Z,6.90
2023-01-03T10:54:14.093Z,6.90
2023-01-03T10:56:43.579Z,6.90
2023-01-03T10:59:13.641Z,6.90
2023-01-03T11:01:42.215Z,7.00
2023-01-03T11:04:15.727Z,6.90
2023-01-03T11:07:01.106Z,6.80
2023-01-03T11:09:35.235Z,6.80
2023-01-03T11:12:12.250Z,6.90
2023-01-03T11:14:40.823Z,6.90
2023-01-03T11:17:13.714Z,7.00
2023-01-03T11:19:41.908Z,7.00
2023-01-03T11:22:15.962Z,7.10
2023-01-03T11:25:08.207Z,7.10
2023-01-03T11:28:15.713Z,7.70
2023-01-03T11:30:53.472Z,7.70
2023-01-03T11:33:37.875Z,7.30
2023-01-03T11:36:20.918Z,7.10
2023-01-03T11:38:59.879Z,7.30
2023-01-03T11:41:45.827Z,7.10
2023-01-03T11:44:31.032Z,7.10
2023-01-03T11:47:13.797Z,7.10
2023-01-03T11:49:57.605Z,7.00
2023-01-03T11:52:31.207Z,6.90
2023-01-03T11:55:23.730Z,6.90
2023-01-03T11:58:05.836Z,6.90
2023-01-03T12:00:42.689Z,6.90
2023-01-03T12:03:18.747Z,6.90
2023-01-03T12:05:50.219Z,6.90
2023-01-03T12:08:37.747Z,6.90
2023-01-03T12:11:15.383Z,6.90
2023-01-03T12:13:53.260Z,7.00
2023-01-03T12:16:27.231Z,7.00
2023-01-03T12:18:59.594Z,7.00
2023-01-03T12:21:35.416Z,7.10
2023-01-03T12:24:10.961Z,7.10
2023-01-03T12:26:43.325Z,7.10
2023-01-03T12:29:19.328Z,7.10
2023-01-03T12:31:55.087Z,7.00
2023-01-03T12:34:29.347Z,7.00
2023-01-03T12:37:08.501Z,6.90
2023-01-03T12:39:46.100Z,7.00
2023-01-03T12:42:23.453Z,7.10
2023-01-03T12:45:00.526Z,7.10
2023-01-03T12:47:35.622Z,7.30
2023-01-03T12:50:08.445Z,7.20
2023-01-03T12:52:38.366Z,7.40
2023-01-03T12:55:16.007Z,7.40
2023-01-03T12:57:59.064Z,7.10
2023-01-03T13:00:40.982Z,7.30
2023-01-03T13:03:19.953Z,7.10
2023-01-03T13:05:51.529Z,7.20
2023-01-03T13:08:30.249Z,7.50
2023-01-03T13:11:04.519Z,7.70
2023-01-03T13:13:34.379Z,7.60
2023-01-03T13:16:35.838Z,7.60
2023-01-03T13:19:40.413Z,7.60
2023-01-03T13:22:38.131Z,7.60
2023-01-03T13:25:41.405Z,7.50
2023-01-03T13:28:31.529Z,7.60
2023-01-03T13:31:45.575Z,7.70
2023-01-03T13:34:35.683Z,7.70
2023-01-03T13:37:24.652Z,7.60
2023-01-03T13:40:19.013Z,7.40
2023-01-03T13:42:47.336Z,7.50
2023-01-03T13:45:55.200Z,7.60
2023-01-03T13:48:30.636Z,7.30
2023-01-03T13:51:34.363Z,7.20
2023-01-03T13:54:07.282Z,7.30
2023-01-03T13:57:04.180Z,7.20
2023-01-03T13:59:44.681Z,7.30
2023-01-03T14:02:49.057Z,7.30
2023-01-03T14:05:38.917Z,7.20
2023-01-03T14:08:23.895Z,7.20
2023-01-03T14:11:17.674Z,7.10
2023-01-03T14:13:48.139Z,7.10
2023-01-03T14:16:24.470Z,7.10
2023-01-03T14:19:13.986Z,7.20
2023-01-03T14:21:46.125Z,7.10
2023-01-03T14:24:22.921Z,7.10
2023-01-03T14:26:52.565Z,7.10
2023-01-03T14:29:24.173Z,7.10
2023-01-03T14:31:55.843Z,7.10
2023-01-03T14:34:31.529Z,7.10
2023-01-03T14:37:08.277Z,7.20
2023-01-03T14:42:07.968Z,7.10
2023-01-03T14:44:36.735Z,7.10
2023-01-03T14:47:09.055Z,7.10
2023-01-03T14:49:42.483Z,7.00
2023-01-03T14:52:17.418Z,7.00
2023-01-03T14:54:48.471Z,7.00
2023-01-03T14:57:24.329Z,7.00
2023-01-03T14:59:53.827Z,7.00
2023-01-03T15:02:22.901Z,7.00
2023-01-03T15:04:53.951Z,7.00
2023-01-03T15:07:30.066Z,7.00
2023-01-03T15:10:07.010Z,7.00
2023-01-03T15:12:40.034Z,7.10
2023-01-03T15:15:16.831Z,7.10
2023-01-03T15:17:47.455Z,7.00
2023-01-03T15:20:18.776Z,7.00
2023-01-03T15:22:47.065Z,7.00
2023-01-03T15:25:21.628Z,7.10
2023-01-03T15:27:52.133Z,7.10
2023-01-03T15:30:27.039Z,7.10
2023-01-03T15:33:02.053Z,7.00
2023-01-03T15:35:37.842Z,7.00
2023-01-03T15:38:13.689Z,7.00
2023-01-03T15:40:41.998Z,7.00
2023-01-03T15:43:21.991Z,7.30
2023-01-03T15:45:59.423Z,7.20
2023-01-03T15:48:28.228Z,7.00
2023-01-03T15:50:57.046Z,7.00
2023-01-03T15:53:28.321Z,6.90
2023-01-03T15:56:00.253Z,7.00
2023-01-03T15:58:30.636Z,7.00
2023-01-03T16:01:00.107Z,7.10
2023-01-03T16:03:32.301Z,7.00
2023-01-03T16:06:00.911Z,7.00
2023-01-03T16:08:31.348Z,7.10
2023-01-03T16:11:01.843Z,7.10
2023-01-03T16:13:40.516Z,7.10
2023-01-03T16:16:09.768Z,7.00
2023-01-03T16:18:41.348Z,6.90
2023-01-03T16:21:09.555Z,6.90
2023-01-03T16:23:37.711Z,6.90
2023-01-03T16:26:06.220Z,6.80
2023-01-03T16:28:36.228Z,6.80
2023-01-03T16:31:13.145Z,6.80
2023-01-03T16:33:42.945Z,6.80
2023-01-03T16:36:25.234Z,6.80
2023-01-03T16:38:53.528Z,6.80
2023-01-03T16:41:21.610Z,6.80
2023-01-03T16:43:52.654Z,6.80
2023-01-03T16:46:23.632Z,6.80
2023-01-03T16:48:54.155Z,6.70
2023-01-03T16:51:25.445Z,6.70
2023-01-03T16:53:55.634Z,6.70
2023-01-03T16:56:24.592Z,6.70
2023-01-03T16:58:54.369Z,6.70
2023-01-03T17:01:22.876Z,6.70
2023-01-03T17:03:51.205Z,6.60
2023-01-03T17:06:37.097Z,6.60
2023-01-03T17:09:09.769Z,6.60
2023-01-03T17:11:38.065Z,6.50
2023-01-03T17:14:07.821Z,6.50
2023-01-03T17:16:35.937Z,6.30
2023-01-03T17:19:04.141Z,6.20
2023-01-03T17:21:34.957Z,6.10
2023-01-03T17:24:06.627Z,6.00
2023-01-03T17:26:36.461Z,6.00
2023-01-03T17:29:08.401Z,5.90
2023-01-03T17:31:36.429Z,5.80
2023-01-03T17:34:21.588Z,5.80
2023-01-03T17:36:49.905Z,5.80
2023-01-03T17:39:18.222Z,5.70
2023-01-03T17:42:04.025Z,5.60
2023-01-03T17:44:33.470Z,5.60
2023-01-03T17:47:21.096Z,5.50
2023-01-03T17:49:49.769Z,5.50
2023-01-03T17:52:25.454Z,5.40
2023-01-03T17:54:53.817Z,5.50
2023-01-03T17:57:22.222Z,5.50
2023-01-03T17:59:51.743Z,5.50
2023-01-03T18:02:22.141Z,5.50
2023-01-03T18:05:15.922Z,5.50
2023-01-03T18:07:38.954Z,5.50
2023-01-03T18:10:09.006Z,5.50
2023-01-03T18:12:37.075Z,5.40
2023-01-03T18:15:14.285Z,5.30
2023-01-03T18:17:42.424Z,5.40
2023-01-03T18:20:13.527Z,5.30
2023-01-03T18:22:41.912Z,5.30
2023-01-03T18:25:21.939Z,5.30
2023-01-03T18:27:54.008Z,5.30
2023-01-03T18:30:23.723Z,5.30
2023-01-03T18:32:52.049Z,5.40
2023-01-03T18:35:32.430Z,5.20
2023-01-03T18:38:05.105Z,5.10
2023-01-03T18:40:33.357Z,5.00
2023-01-03T18:43:12.691Z,5.00
2023-01-03T18:45:43.254Z,4.80
2023-01-03T18:48:14.982Z,4.70
2023-01-03T18:50:43.738Z,4.70
2023-01-03T18:53:17.841Z,4.50
2023-01-03T18:55:46.591Z,4.50
2023-01-03T18:58:22.978Z,4.40
2023-01-03T19:00:52.652Z,4.30
2023-01-03T19:03:23.345Z,4.10
2023-01-03T19:05:54.055Z,3.90
2023-01-03T19:08:24.327Z,4.00
2023-01-03T19:10:53.130Z,8.60
2023-01-03T19:13:27.187Z,5.10
2023-01-03T19:15:57.099Z,4.30
2023-01-03T19:18:25.333Z,4.00
2023-01-03T19:20:53.374Z,3.80
2023-01-03T19:23:24.852Z,3.80
2023-01-03T19:25:53.683Z,3.80
2023-01-03T19:28:28.777Z,3.70
2023-01-03T19:30:58.849Z,3.70
2023-01-03T19:33:27.051Z,3.80
2023-01-03T19:35:55.115Z,3.90
2023-01-03T19:38:23.395Z,4.00
2023-01-03T19:40:51.576Z,4.10
2023-01-03T19:43:22.389Z,4.10
2023-01-03T19:45:50.720Z,4.30
2023-01-03T19:48:21.636Z,4.20
2023-01-03T19:50:50.369Z,4.00
2023-01-03T19:53:18.835Z,3.90
2023-01-03T19:55:48.435Z,3.90
2023-01-03T19:58:20.194Z,3.90
2023-01-03T20:00:49.610Z,3.90
2023-01-03T20:03:28.087Z,3.90
2023-01-03T20:05:56.482Z,3.80
2023-01-03T20:08:24.789Z,3.70
2023-01-03T20:10:54.140Z,3.70
2023-01-03T20:13:24.292Z,3.70
2023-01-03T20:15:55.505Z,3.60
2023-01-03T20:18:28.459Z,3.80
2023-01-03T20:21:00.239Z,3.70
2023-01-03T20:23:32.538Z,3.70
2023-01-03T20:26:00.812Z,3.60
2023-01-03T20:28:31.090Z,3.90
2023-01-03T20:31:00.747Z,3.90
2023-01-03T20:33:30.423Z,3.80
2023-01-03T20:36:12.650Z,3.80
2023-01-03T20:38:47.956Z,3.80
2023-01-03T20:41:18.348Z,3.70
2023-01-03T20:43:47.559Z,3.60
2023-01-03T20:46:18.767Z,3.70
2023-01-03T20:48:55.823Z,3.60
2023-01-03T20:51:25.001Z,3.60
2023-01-03T20:53:55.096Z,3.60
2023-01-03T20:56:23.942Z,3.50
2023-01-03T20:58:52.661Z,3.40
2023-01-03T21:01:20.963Z,3.30
2023-01-03T21:03:50.617Z,3.30
2023-01-03T21:06:20.360Z,3.10
2023-01-03T21:08:57.636Z,3.00
2023-01-03T21:11:27.859Z,3.00
2023-01-03T21:13:56.060Z,2.90
2023-01-03T21:16:30.585Z,2.80
2023-01-03T21:19:07.794Z,2.80
2023-01-03T21:21:36.622Z,2.80
2023-01-03T21:24:06.828Z,2.80
2023-01-03T21:26:35.248Z,3.00
2023-01-03T21:29:03.582Z,3.00
2023-01-03T21:31:33.847Z,3.10
2023-01-03T21:34:04.938Z,3.20
2023-01-03T21:36:35.125Z,3.20
2023-01-03T21:39:05.079Z,3.20
2023-01-03T21:41:35.024Z,3.40
2023-01-03T21:44:05.080Z,3.30
2023-01-03T21:46:33.266Z,3.20
2023-01-03T21:49:01.438Z,3.20
2023-01-03T21:51:38.232Z,3.20
2023-01-03T21:54:08.222Z,3.10
2023-01-03T21:56:44.605Z,3.00
2023-01-03T21:59:13.373Z,3.10
2023-01-03T22:01:55.767Z,3.00
2023-01-03T22:04:23.976Z,2.80
2023-01-03T22:07:00.680Z,2.80
2023-01-03T22:09:47.110Z,2.60
2023-01-03T22:12:16.253Z,2.60
2023-01-03T22:14:45.091Z,2.50
2023-01-03T22:17:13.435Z,2.50
2023-01-03T22:19:41.533Z,2.50
2023-01-03T22:22:11.047Z,2.60
2023-01-03T22:24:39.193Z,2.50
2023-01-03T22:27:07.708Z,2.50
2023-01-03T22:29:35.921Z,2.40
2023-01-03T22:32:04.382Z,2.30
2023-01-03T22:34:32.509Z,2.40
2023-01-03T22:37:00.612Z,2.40
2023-01-03T22:39:30.305Z,2.20
2023-01-03T22:41:58.747Z,2.30
2023-01-03T22:44:26.820Z,2.40
2023-01-03T22:46:54.928Z,2.30
2023-01-03T22:49:23.101Z,2.20
2023-01-03T22:51:51.244Z,2.30
2023-01-03T22:54:19.457Z,2.30
2023-01-03T22:56:48.906Z,2.30
2023-01-03T22:59:17.444Z,2.60
2023-01-03T23:01:46.682Z,2.50
2023-01-03T23:04:15.006Z,2.60
2023-01-03T23:06:43.145Z,2.60
2023-01-03T23:09:12.972Z,2.50
2023-01-03T23:11:59.332Z,2.60
2023-01-03T23:14:28.909Z,2.60
2023-01-03T23:17:18.281Z,2.40
2023-01-03T23:19:46.406Z,2.40
2023-01-03T23:22:14.505Z,2.30
2023-01-03T23:24:42.513Z,2.20
2023-01-03T23:27:10.606Z,2.30
2023-01-03T23:29:40.051Z,2.30
2023-01-03T23:32:08.196Z,2.10
2023-01-03T23:34:36.252Z,2.10
2023-01-03T23:37:04.506Z,2.30
2023-01-03T23:39:32.528Z,2.20
2023-01-03T23:42:00.709Z,2.20
2023-01-03T23:44:29.742Z,2.00
2023-01-03T23:46:59.250Z,1.90
2023-01-03T23:49:27.433Z,1.80
2023-01-03T23:51:55.508Z,1.70
2023-01-03T23:54:23.664Z,1.70
2023-01-03T23:56:51.730Z,1.60
2023-01-03T23:59:19.963Z,1.40
